Trustn Trader II — DUHL — position and weather

sailwx.info

Track history (hours):
 
Tides and Currents Weather Stations Pressure Air Temp Water Temp Dewpoint Dewpoint Depression Visibility Wind Speed Wind Dir Waves Ship Positions

Trustn Trader II

Last reported at 2018-May-18 19:27 UTC. Time now 2018-May-24 11:40 UTC.
Position N 09°11' W 079°52'.

Length 229 m; draft 11.7 m.

Type: Cargo ship. MMSI: 548920000.

Date/timePositionNaut miles runAvg speedWind from/ knotsBaromVisibWave heightAir tempDewpointWater temp
2018-May-18 19:27N 09°11' W 079°52'4 7.1
2018-May-18 18:57N 09°13' W 079°55'2 2.5
2018-May-18 17:56N 09°15' W 079°55'0 0.0
2018-May-18 17:26N 09°15' W 079°55'0 0.0
2018-May-18 16:53N 09°15' W 079°55'0 0.0
2018-May-18 16:29N 09°15' W 079°55'0 0.0
2018-May-18 15:59N 09°15' W 079°55'0 0.0
2018-May-18 15:20N 09°15' W 079°55'0 0.1
2018-May-18 14:50N 09°15' W 079°55'0 0.3
2018-May-18 14:26N 09°15' W 079°55'0 0.0
2018-May-18 13:14N 09°15' W 079°55'0 0.1
2018-May-18 12:55N 09°15' W 079°55'0 0.0
2018-May-18 12:30N 09°15' W 079°55'0 0.0
2018-May-18 11:58N 09°15' W 079°55'0 0.1
2018-May-18 11:30N 09°15' W 079°55'1 1.3
2018-May-18 10:59N 09°16' W 079°55'1 1.3
2018-May-18 10:30N 09°16' W 079°55'0 0.4
2018-May-18 10:00N 09°17' W 079°55'0 0.5
2018-May-18 09:28N 09°17' W 079°55'1 1.2
2018-May-18 09:00N 09°17' W 079°55'3 6.8
2018-May-18 08:31N 09°21' W 079°55'4 7.0
2018-May-18 08:00N 09°24' W 079°55'2 4.2
2018-May-18 07:30N 09°26' W 079°56'1 2.7
2018-May-18 07:00N 09°26' W 079°57'1 1.5
2018-May-18 06:26N 09°26' W 079°57'0 0.1
2018-May-18 05:59N 09°26' W 079°57'0 0.0
2018-May-18 05:29N 09°26' W 079°57'0 0.0
2018-May-18 04:59N 09°26' W 079°57'0 0.0
2018-May-18 04:29N 09°26' W 079°57'0 0.0
2018-May-18 03:59N 09°26' W 079°57'0 0.0
2018-May-18 03:29N 09°26' W 079°57'0 0.0
2018-May-18 02:59N 09°26' W 079°57'0 0.0
2018-May-18 02:29N 09°26' W 079°57'0 0.0
2018-May-18 01:59N 09°26' W 079°57'0 0.0
2018-May-18 01:29N 09°26' W 079°57'0 0.0
2018-May-18 00:59N 09°26' W 079°57'0 0.0
2018-May-18 00:26N 09°26' W 079°57'0 0.0
2018-May-17 23:53N 09°26' W 079°57'0 0.1
2018-May-17 23:17N 09°26' W 079°57'0 0.1
2018-May-17 22:56N 09°26' W 079°57'1 1.2
2018-May-17 22:30N 09°25' W 079°57'2 3.7
2018-May-17 22:01N 09°26' W 079°55'5 9.5
2018-May-17 21:30N 09°31' W 079°53'  
2018-May-09 13:34N 30°02' W 090°41'0 0.1
2018-May-09 13:28N 30°02' W 090°41'0 0.0
2018-May-09 12:58N 30°02' W 090°41'0 0.0
2018-May-09 12:28N 30°02' W 090°41'0 0.0
2018-May-09 11:58N 30°02' W 090°41'0 0.0
2018-May-09 11:25N 30°02' W 090°41'0 0.0
2018-May-09 10:58N 30°02' W 090°41'0 0.0
2018-May-09 09:13N 30°02' W 090°41'0 0.0
2018-May-09 08:58N 30°02' W 090°41'0 0.0
2018-May-09 06:40N 30°02' W 090°41'0 0.0
2018-May-09 06:25N 30°02' W 090°41'0 0.0
2018-May-09 05:55N 30°02' W 090°41'0 0.0
2018-May-09 05:28N 30°02' W 090°41'0 0.0
2018-May-09 04:52N 30°02' W 090°41'0 0.0
2018-May-09 04:28N 30°02' W 090°41'0 0.0
2018-May-09 03:58N 30°02' W 090°41'  
Track history (hours):
 
Tides and Currents Weather Stations Pressure Air Temp Water Temp Dewpoint Dewpoint Depression Visibility Wind Speed Wind Dir Waves Ship Positions

Trustn Trader II

Last reported at 2018-May-18 19:27 UTC. Time now 2018-May-24 11:40 UTC.
Position N 09°11' W 079°52'.

Length 229 m; draft 11.7 m.

Type: Cargo ship. MMSI: 548920000.

Date/timePositionNaut miles runAvg speedWind from/ knotsBaromVisibWave heightAir tempDewpointWater temp
2018-May-18 19:27N 09°11' W 079°52'4 7.1
2018-May-18 18:57N 09°13' W 079°55'2 2.5
2018-May-18 17:56N 09°15' W 079°55'0 0.0
2018-May-18 17:26N 09°15' W 079°55'0 0.0
2018-May-18 16:53N 09°15' W 079°55'0 0.0
2018-May-18 16:29N 09°15' W 079°55'0 0.0
2018-May-18 15:59N 09°15' W 079°55'0 0.0
2018-May-18 15:20N 09°15' W 079°55'0 0.1
2018-May-18 14:50N 09°15' W 079°55'0 0.3
2018-May-18 14:26N 09°15' W 079°55'0 0.0
2018-May-18 13:14N 09°15' W 079°55'0 0.1
2018-May-18 12:55N 09°15' W 079°55'0 0.0
2018-May-18 12:30N 09°15' W 079°55'0 0.0
2018-May-18 11:58N 09°15' W 079°55'0 0.1
2018-May-18 11:30N 09°15' W 079°55'1 1.3
2018-May-18 10:59N 09°16' W 079°55'1 1.3
2018-May-18 10:30N 09°16' W 079°55'0 0.4
2018-May-18 10:00N 09°17' W 079°55'0 0.5
2018-May-18 09:28N 09°17' W 079°55'1 1.2
2018-May-18 09:00N 09°17' W 079°55'3 6.8
2018-May-18 08:31N 09°21' W 079°55'4 7.0
2018-May-18 08:00N 09°24' W 079°55'2 4.2
2018-May-18 07:30N 09°26' W 079°56'1 2.7
2018-May-18 07:00N 09°26' W 079°57'1 1.5
2018-May-18 06:26N 09°26' W 079°57'0 0.1
2018-May-18 05:59N 09°26' W 079°57'0 0.0
2018-May-18 05:29N 09°26' W 079°57'0 0.0
2018-May-18 04:59N 09°26' W 079°57'0 0.0
2018-May-18 04:29N 09°26' W 079°57'0 0.0
2018-May-18 03:59N 09°26' W 079°57'0 0.0
2018-May-18 03:29N 09°26' W 079°57'0 0.0
2018-May-18 02:59N 09°26' W 079°57'0 0.0
2018-May-18 02:29N 09°26' W 079°57'0 0.0
2018-May-18 01:59N 09°26' W 079°57'0 0.0
2018-May-18 01:29N 09°26' W 079°57'0 0.0
2018-May-18 00:59N 09°26' W 079°57'0 0.0
2018-May-18 00:26N 09°26' W 079°57'0 0.0
2018-May-17 23:53N 09°26' W 079°57'0 0.1
2018-May-17 23:17N 09°26' W 079°57'0 0.1
2018-May-17 22:56N 09°26' W 079°57'1 1.2
2018-May-17 22:30N 09°25' W 079°57'2 3.7
2018-May-17 22:01N 09°26' W 079°55'5 9.5
2018-May-17 21:30N 09°31' W 079°53'  
2018-May-09 13:34N 30°02' W 090°41'0 0.1
2018-May-09 13:28N 30°02' W 090°41'0 0.0
2018-May-09 12:58N 30°02' W 090°41'0 0.0
2018-May-09 12:28N 30°02' W 090°41'0 0.0
2018-May-09 11:58N 30°02' W 090°41'0 0.0
2018-May-09 11:25N 30°02' W 090°41'0 0.0
2018-May-09 10:58N 30°02' W 090°41'0 0.0
2018-May-09 09:13N 30°02' W 090°41'0 0.0
2018-May-09 08:58N 30°02' W 090°41'0 0.0
2018-May-09 06:40N 30°02' W 090°41'0 0.0
2018-May-09 06:25N 30°02' W 090°41'0 0.0
2018-May-09 05:55N 30°02' W 090°41'0 0.0
2018-May-09 05:28N 30°02' W 090°41'0 0.0
2018-May-09 04:52N 30°02' W 090°41'0 0.0
2018-May-09 04:28N 30°02' W 090°41'0 0.0
2018-May-09 03:58N 30°02' W 090°41'  

Dump ship's entire track history